Time;durP1;ratioP1;P1;durP2;ratioP2;P2;SDS_P1;SDS_P2;PMS_P1;PMS_P2;Temp;Humidity;BMP_temperature;BMP_pressure;BME280_temperature;BME280_humidity;BME280_pressure;Samples;Min_cycle;Max_cycle;Signal;HPM_P1;HPM_P2
2023/09/05 00:00:10;;;;;;;4.45;2.20;;;20.30;99.90;;;;;;5048284;28;20215;-76
2023/09/05 00:02:39;;;;;;;3.63;2.53;;;20.20;99.90;;;;;;5064924;28;20247;-77
2023/09/05 00:05:09;;;;;;;2.83;2.03;;;20.10;99.90;;;;;;5048556;28;20591;-76
2023/09/05 00:07:35;;;;;;;2.80;2.17;;;20.10;99.90;;;;;;5064389;28;20539;-76
2023/09/05 00:10:03;;;;;;;3.22;2.17;;;20.20;99.90;;;;;;5054318;28;20223;-76
2023/09/05 00:12:30;;;;;;;2.50;2.15;;;20.20;99.90;;;;;;5064510;28;20235;-77
2023/09/05 00:14:55;;;;;;;4.88;2.47;;;20.20;99.90;;;;;;5045745;28;20208;-76
2023/09/05 00:17:21;;;;;;;3.25;2.60;;;20.00;99.90;;;;;;5063336;28;20226;-77
2023/09/05 00:19:49;;;;;;;4.38;2.97;;;20.00;99.90;;;;;;5047945;28;20767;-76
2023/09/05 00:22:15;;;;;;;5.15;2.88;;;20.00;99.90;;;;;;5045105;28;20669;-74
2023/09/05 00:24:42;;;;;;;2.83;2.38;;;20.00;99.90;;;;;;5050222;28;20664;-76
2023/09/05 00:27:11;;;;;;;3.35;2.20;;;20.00;99.90;;;;;;5066719;28;20210;-77
2023/09/05 00:29:38;;;;;;;2.42;2.20;;;19.90;99.90;;;;;;5055310;28;20250;-77
2023/09/05 00:32:04;;;;;;;2.88;2.38;;;19.90;99.90;;;;;;5060043;28;20206;-76
2023/09/05 00:34:32;;;;;;;2.95;2.15;;;19.90;99.90;;;;;;5055817;28;20646;-77
2023/09/05 00:37:00;;;;;;;3.28;2.47;;;20.00;99.90;;;;;;5065554;28;20183;-76
2023/09/05 00:39:27;;;;;;;3.00;2.28;;;19.90;99.90;;;;;;5063109;28;20195;-77
2023/09/05 00:41:54;;;;;;;3.80;2.58;;;19.80;99.90;;;;;;5065459;28;20215;-76
2023/09/05 00:44:20;;;;;;;2.67;2.47;;;19.80;99.90;;;;;;5063634;28;20574;-76
2023/09/05 00:46:46;;;;;;;4.18;2.78;;;19.80;99.90;;;;;;5047369;28;20214;-76
2023/09/05 00:49:15;;;;;;;3.85;3.15;;;19.70;99.90;;;;;;5067029;28;20199;-73
2023/09/05 00:51:45;;;;;;;3.78;2.42;;;19.70;99.90;;;;;;5071255;28;20167;-76
2023/09/05 00:54:11;;;;;;;3.78;2.55;;;19.60;99.90;;;;;;5065457;28;20214;-74
2023/09/05 00:56:37;;;;;;;2.78;2.50;;;19.70;99.90;;;;;;5042027;28;20273;-76
2023/09/05 00:59:05;;;;;;;3.92;2.67;;;19.70;99.90;;;;;;5063188;28;20238;-77
2023/09/05 01:01:31;;;;;;;3.53;2.65;;;19.60;99.90;;;;;;5063720;28;20233;-76
2023/09/05 01:03:57;;;;;;;3.50;2.40;;;19.60;99.90;;;;;;5066922;28;20175;-75
2023/09/05 01:06:49;;;;;;;3.53;2.30;;;19.60;99.90;;;;;;5064474;28;20206;-76
2023/09/05 01:09:33;;;;;;;4.15;2.92;;;19.50;99.90;;;;;;5065097;28;20239;-76
2023/09/05 01:12:00;;;;;;;3.00;2.50;;;19.50;99.90;;;;;;5070294;28;20195;-76
2023/09/05 01:14:25;;;;;;;3.50;2.83;;;19.50;99.90;;;;;;5062573;28;20207;-75
2023/09/05 01:16:53;;;;;;;5.43;2.88;;;19.50;99.90;;;;;;5047326;28;20289;-75
2023/09/05 01:19:19;;;;;;;3.65;2.95;;;19.40;99.90;;;;;;5063420;28;20211;-75
2023/09/05 01:21:56;;;;;;;3.83;3.00;;;19.40;99.90;;;;;;5062835;28;20209;-77
2023/09/05 01:24:22;;;;;;;2.95;2.35;;;19.40;99.90;;;;;;5043750;28;20215;-77
2023/09/05 01:33:27;;;;;;;3.42;2.95;;;19.30;99.90;;;;;;5076064;28;20292;-74
2023/09/05 01:35:53;;;;;;;5.88;3.17;;;19.30;99.90;;;;;;5091710;28;20773;-74
2023/09/05 01:38:19;;;;;;;3.58;2.80;;;19.20;99.90;;;;;;5093068;28;20209;-74
2023/09/05 01:40:44;;;;;;;4.00;2.90;;;19.20;99.90;;;;;;5090102;28;20213;-73
2023/09/05 01:43:10;;;;;;;3.55;3.08;;;19.20;99.90;;;;;;5071367;28;20203;-73
2023/09/05 01:45:35;;;;;;;6.85;3.10;;;19.10;99.90;;;;;;5072375;28;20171;-72
2023/09/05 01:48:01;;;;;;;3.22;2.63;;;19.10;99.90;;;;;;5063223;28;20207;-74
2023/09/05 01:50:32;;;;;;;3.75;2.92;;;19.10;99.90;;;;;;5082806;28;20585;-73
2023/09/05 01:52:58;;;;;;;3.65;2.53;;;19.10;99.90;;;;;;5080948;28;20217;-74
2023/09/05 01:55:24;;;;;;;3.20;2.28;;;19.10;99.90;;;;;;5087193;28;20202;-74
2023/09/05 01:57:49;;;;;;;3.28;2.58;;;19.10;99.90;;;;;;5085463;28;20178;-74
2023/09/05 02:00:17;;;;;;;3.88;2.53;;;19.10;99.90;;;;;;5061466;28;20268;-75
2023/09/05 02:02:43;;;;;;;3.92;2.45;;;19.10;99.90;;;;;;5067976;28;20761;-72
2023/09/05 02:05:09;;;;;;;3.20;2.50;;;19.10;99.90;;;;;;5088556;28;20214;-72
2023/09/05 02:07:34;;;;;;;3.67;2.58;;;19.10;99.90;;;;;;5079265;28;20207;-73
2023/09/05 02:10:00;;;;;;;3.35;2.67;;;19.10;99.90;;;;;;5081017;28;20728;-73
2023/09/05 02:12:25;;;;;;;4.40;3.25;;;19.00;99.90;;;;;;5064354;28;20653;-74
2023/09/05 02:14:51;;;;;;;5.20;2.90;;;19.00;99.90;;;;;;5080764;28;20238;-73
2023/09/05 02:17:20;;;;;;;2.75;2.42;;;19.00;99.90;;;;;;5083045;28;20320;-74
2023/09/05 02:19:46;;;;;;;4.88;3.00;;;18.90;99.90;;;;;;5085306;28;20691;-75
2023/09/05 02:22:12;;;;;;;4.43;2.65;;;18.90;99.90;;;;;;5086239;28;20252;-74
2023/09/05 02:24:37;;;;;;;4.13;3.08;;;18.90;99.90;;;;;;5086173;28;20167;-75
2023/09/05 02:27:03;;;;;;;2.78;2.45;;;18.80;99.90;;;;;;5071115;28;20202;-74
2023/09/05 02:29:29;;;;;;;5.18;2.67;;;19.00;99.90;;;;;;5077216;28;20759;-75
2023/09/05 02:31:55;;;;;;;4.38;2.40;;;19.00;99.90;;;;;;5079458;28;20233;-76
2023/09/05 02:34:20;;;;;;;5.03;2.72;;;18.90;99.90;;;;;;5067653;28;20214;-76
2023/09/05 02:36:46;;;;;;;4.32;3.03;;;18.90;99.90;;;;;;5078972;28;20183;-72
2023/09/05 02:39:12;;;;;;;2.97;2.47;;;19.00;99.90;;;;;;5082901;28;20585;-73
2023/09/05 02:41:38;;;;;;;2.45;2.25;;;19.00;99.90;;;;;;5075888;28;20719;-75
2023/09/05 02:44:04;;;;;;;3.63;2.38;;;18.90;99.90;;;;;;5079088;28;20202;-74
2023/09/05 02:46:29;;;;;;;4.10;2.70;;;18.80;99.90;;;;;;5059018;28;20202;-74
2023/09/05 02:48:55;;;;;;;4.15;2.47;;;18.80;99.90;;;;;;5079261;28;20179;-73
2023/09/05 02:51:20;;;;;;;6.43;2.92;;;18.80;99.90;;;;;;5083056;28;20202;-73
2023/09/05 02:53:47;;;;;;;4.32;2.58;;;18.80;99.90;;;;;;5076843;28;20586;-74
2023/09/05 02:56:13;;;;;;;2.50;2.30;;;18.90;99.90;;;;;;5087817;28;20210;-75
2023/09/05 02:58:38;;;;;;;5.60;2.30;;;18.80;99.90;;;;;;5082587;28;20298;-76
2023/09/05 03:01:09;;;;;;;3.78;2.42;;;18.80;99.90;;;;;;5086847;28;20551;-76
2023/09/05 03:03:35;;;;;;;3.28;2.85;;;18.80;99.90;;;;;;5086450;28;20186;-73
2023/09/05 03:06:11;;;;;;;3.00;2.67;;;18.80;99.90;;;;;;5083811;28;20221;-73
2023/09/05 03:08:38;;;;;;;2.67;2.40;;;18.80;99.90;;;;;;5060892;28;20281;-73
2023/09/05 03:11:04;;;;;;;3.83;2.42;;;18.80;99.90;;;;;;5081944;28;20237;-75
2023/09/05 03:13:30;;;;;;;2.40;1.95;;;18.80;99.90;;;;;;5082877;28;20225;-74
2023/09/05 03:15:55;;;;;;;2.95;2.35;;;18.80;99.90;;;;;;5061187;28;20529;-74
2023/09/05 03:18:21;;;;;;;4.93;2.50;;;18.80;99.90;;;;;;5078367;28;20699;-74
2023/09/05 03:20:47;;;;;;;3.22;2.60;;;18.70;99.90;;;;;;5077352;28;20231;-74
2023/09/05 03:23:15;;;;;;;3.50;2.42;;;18.70;99.90;;;;;;5062677;28;20213;-74
2023/09/05 03:25:41;;;;;;;4.07;2.38;;;18.60;99.90;;;;;;5080631;28;20876;-71
2023/09/05 03:28:09;;;;;;;2.55;2.30;;;18.60;99.90;;;;;;5073512;28;20201;-73
2023/09/05 03:30:35;;;;;;;3.78;2.92;;;18.60;99.90;;;;;;5076414;28;20207;-72
2023/09/05 03:33:01;;;;;;;2.97;2.47;;;18.70;99.90;;;;;;5082663;28;20218;-72
2023/09/05 03:35:27;;;;;;;5.90;2.78;;;18.70;99.90;;;;;;5064883;28;20215;-74
2023/09/05 03:37:53;;;;;;;5.03;3.17;;;18.70;99.90;;;;;;5083214;28;20208;-74
2023/09/05 03:40:18;;;;;;;4.45;2.60;;;18.70;99.90;;;;;;5065428;28;20206;-74
2023/09/05 03:42:44;;;;;;;3.80;2.80;;;18.70;99.90;;;;;;5085468;28;20627;-73
2023/09/05 03:45:09;;;;;;;3.40;2.50;;;18.70;99.90;;;;;;5081193;28;20575;-73
2023/09/05 03:47:35;;;;;;;3.22;2.80;;;18.70;99.90;;;;;;5082309;28;20632;-73
2023/09/05 03:50:01;;;;;;;3.90;3.47;;;18.60;99.90;;;;;;5082074;28;20214;-74
2023/09/05 03:52:26;;;;;;;3.78;2.42;;;18.50;99.90;;;;;;5063618;28;20728;-74
2023/09/05 03:54:52;;;;;;;5.88;3.28;;;18.50;99.90;;;;;;5082806;28;20186;-73
2023/09/05 03:57:17;;;;;;;3.88;2.70;;;18.50;99.90;;;;;;5082739;28;20660;-74
2023/09/05 03:59:43;;;;;;;2.70;2.25;;;18.50;99.90;;;;;;5077900;28;20222;-73
2023/09/05 04:02:09;;;;;;;4.05;2.63;;;18.40;99.90;;;;;;5081228;28;20747;-74
2023/09/05 04:04:34;;;;;;;4.07;2.50;;;18.40;99.90;;;;;;5057977;28;20206;-75
2023/09/05 04:07:00;;;;;;;2.85;2.55;;;18.50;99.90;;;;;;5079395;28;20171;-72
2023/09/05 04:09:25;;;;;;;2.90;2.60;;;18.50;99.90;;;;;;5062820;28;20194;-75
2023/09/05 04:11:51;;;;;;;2.90;2.58;;;18.50;99.90;;;;;;5075174;28;20207;-74
2023/09/05 04:14:17;;;;;;;4.00;2.65;;;18.50;99.90;;;;;;5084428;28;20211;-73
2023/09/05 04:16:43;;;;;;;9.98;6.90;;;18.50;99.90;;;;;;5063272;28;20263;-74
2023/09/05 04:19:08;;;;;;;12.43;8.50;;;18.50;99.90;;;;;;5078313;28;20185;-74
2023/09/05 04:21:35;;;;;;;3.65;3.25;;;18.50;99.90;;;;;;5081564;28;20207;-75
2023/09/05 04:24:00;;;;;;;4.47;3.28;;;18.50;99.90;;;;;;5077472;28;20243;-74
2023/09/05 04:26:28;;;;;;;3.33;2.78;;;18.50;99.90;;;;;;5068392;28;20283;-75
2023/09/05 04:28:54;;;;;;;4.90;3.65;;;18.50;99.90;;;;;;5081147;28;20309;-75
2023/09/05 04:31:20;;;;;;;3.90;2.63;;;18.50;99.90;;;;;;5080527;28;20297;-75
2023/09/05 04:33:45;;;;;;;2.88;2.55;;;18.50;99.90;;;;;;5075682;28;20548;-75
2023/09/05 04:36:11;;;;;;;4.63;2.92;;;18.40;99.90;;;;;;5081330;28;20218;-75
2023/09/05 04:38:37;;;;;;;4.07;3.05;;;18.40;99.90;;;;;;5084184;28;20676;-74
2023/09/05 04:41:05;;;;;;;5.57;3.38;;;18.40;99.90;;;;;;5063980;28;20290;-75
2023/09/05 04:43:31;;;;;;;5.22;2.97;;;18.50;99.90;;;;;;5074525;28;20258;-76
2023/09/05 04:45:57;;;;;;;3.22;2.67;;;18.50;99.90;;;;;;5061489;28;20176;-75
2023/09/05 04:48:23;;;;;;;2.90;2.33;;;18.60;99.90;;;;;;5058002;28;20167;-74
2023/09/05 04:50:49;;;;;;;4.80;3.03;;;19.30;99.90;;;;;;5078132;28;20218;-74
2023/09/05 04:53:15;;;;;;;4.78;2.80;;;20.80;99.90;;;;;;5059687;28;20210;-75
2023/09/05 04:55:42;;;;;;;8.23;2.80;;;21.00;99.90;;;;;;5082255;28;20590;-75
2023/09/05 04:58:08;;;;;;;4.55;3.00;;;20.60;99.90;;;;;;5060403;28;20187;-73
2023/09/05 05:00:34;;;;;;;4.15;2.90;;;20.10;99.90;;;;;;5078971;28;20202;-74
2023/09/05 05:03:00;;;;;;;3.17;2.65;;;19.70;99.90;;;;;;5078662;28;20211;-71
2023/09/05 05:05:26;;;;;;;3.47;2.67;;;19.90;99.90;;;;;;5081373;28;20209;-74
2023/09/05 05:07:52;;;;;;;2.78;2.28;;;19.50;99.90;;;;;;5061202;28;20262;-72
2023/09/05 05:10:18;;;;;;;3.53;2.75;;;19.50;99.90;;;;;;5065712;28;20238;-73
2023/09/05 05:12:43;;;;;;;2.65;2.45;;;19.60;99.90;;;;;;5064102;28;20178;-74
2023/09/05 05:15:09;;;;;;;4.50;2.75;;;19.30;99.90;;;;;;5079607;28;20215;-74
2023/09/05 05:17:36;;;;;;;6.05;2.80;;;19.30;99.90;;;;;;5080704;28;20206;-75
2023/09/05 05:20:05;;;;;;;6.43;2.83;;;19.50;99.90;;;;;;5078829;28;20211;-74
2023/09/05 05:22:30;;;;;;;4.20;2.85;;;19.80;99.90;;;;;;5080911;28;20717;-74
2023/09/05 05:24:56;;;;;;;3.72;2.47;;;20.10;99.90;;;;;;5080274;28;20183;-74
2023/09/05 05:27:22;;;;;;;2.60;2.20;;;20.80;99.90;;;;;;5081795;28;20170;-74
2023/09/05 05:29:47;;;;;;;3.00;2.67;;;22.40;99.90;;;;;;5059712;28;20726;-74
2023/09/05 05:32:13;;;;;;;4.00;2.67;;;24.30;99.90;;;;;;5060170;28;20198;-74
2023/09/05 05:34:39;;;;;;;6.10;2.83;;;25.20;99.90;;;;;;5064122;28;20297;-74
2023/09/05 05:37:04;;;;;;;5.20;3.97;;;26.20;99.90;;;;;;5078208;28;20183;-75
2023/09/05 05:39:30;;;;;;;3.88;3.22;;;26.90;99.90;;;;;;5081609;28;20190;-74
2023/09/05 05:41:56;;;;;;;3.60;2.63;;;27.10;99.90;;;;;;5078837;28;20217;-74
2023/09/05 05:44:21;;;;;;;5.95;2.65;;;27.30;99.90;;;;;;5080401;28;20260;-74
2023/09/05 05:46:47;;;;;;;4.38;2.80;;;26.90;99.90;;;;;;5079853;28;20617;-74
2023/09/05 05:49:12;;;;;;;3.38;2.60;;;26.60;99.90;;;;;;5079136;28;20175;-75
2023/09/05 05:51:39;;;;;;;4.97;3.17;;;27.40;99.90;;;;;;5081162;28;20549;-76
2023/09/05 05:54:05;;;;;;;4.65;2.58;;;26.00;99.90;;;;;;5080979;28;21658;-75
2023/09/05 05:56:31;;;;;;;4.05;2.95;;;25.50;99.90;;;;;;5081121;28;20725;-74
2023/09/05 05:58:57;;;;;;;5.53;3.10;;;25.00;99.90;;;;;;5077478;28;20214;-75
2023/09/05 06:01:22;;;;;;;4.75;2.83;;;24.10;99.90;;;;;;5065500;28;20213;-74
2023/09/05 06:03:48;;;;;;;4.28;3.00;;;24.30;99.90;;;;;;5078567;28;20250;-73
2023/09/05 06:06:14;;;;;;;5.20;3.35;;;25.50;99.90;;;;;;5081149;28;20199;-74
2023/09/05 06:08:40;;;;;;;3.22;2.58;;;27.20;99.90;;;;;;5078848;28;20207;-75
2023/09/05 06:11:06;;;;;;;4.18;2.65;;;28.70;99.90;;;;;;5080129;28;20226;-74
2023/09/05 06:13:32;;;;;;;3.63;2.42;;;29.40;99.90;;;;;;5077758;28;20231;-75
2023/09/05 06:15:57;;;;;;;4.03;3.00;;;29.70;99.90;;;;;;5068701;28;20247;-76
2023/09/05 06:18:23;;;;;;;5.03;2.33;;;28.40;99.90;;;;;;5080667;28;20171;-73
2023/09/05 06:20:49;;;;;;;5.85;2.63;;;29.70;99.90;;;;;;5084758;28;20234;-73
2023/09/05 06:23:14;;;;;;;6.70;2.97;;;29.50;99.90;;;;;;5082797;28;20230;-75
2023/09/05 06:25:40;;;;;;;6.07;2.40;;;30.50;99.90;;;;;;5084261;28;20240;-75
2023/09/05 06:28:06;;;;;;;5.60;2.97;;;31.40;99.90;;;;;;5081493;28;20187;-75
2023/09/05 06:30:31;;;;;;;4.72;2.47;;;32.10;99.90;;;;;;5085120;28;20727;-75
2023/09/05 06:32:57;;;;;;;4.22;2.55;;;32.60;99.90;;;;;;5079243;28;20228;-75
2023/09/05 06:35:23;;;;;;;2.88;2.42;;;31.30;99.90;;;;;;5081651;28;20292;-74
2023/09/05 06:38:00;;;;;;;3.13;2.60;;;32.10;99.90;;;;;;5082740;28;20198;-73
2023/09/05 06:40:26;;;;;;;3.42;2.42;;;31.50;99.90;;;;;;5082331;28;20209;-73
2023/09/05 06:42:52;;;;;;;3.38;2.22;;;30.90;99.90;;;;;;5080484;28;20279;-74
2023/09/05 06:45:18;;;;;;;6.72;4.90;;;29.70;99.90;;;;;;5084479;28;20244;-74
2023/09/05 06:47:43;;;;;;;4.40;2.35;;;29.60;99.90;;;;;;5081561;28;20199;-74
2023/09/05 06:50:10;;;;;;;5.68;2.50;;;27.80;99.90;;;;;;5083461;28;20229;-74
2023/09/05 06:52:36;;;;;;;4.57;2.60;;;27.30;99.90;;;;;;5079763;28;20337;-73
2023/09/05 06:55:02;;;;;;;3.80;3.05;;;27.60;99.90;;;;;;5079742;28;20274;-74
2023/09/05 06:57:28;;;;;;;5.60;2.50;;;27.70;99.90;;;;;;5081637;28;20172;-73
2023/09/05 06:59:54;;;;;;;4.15;2.40;;;27.30;99.90;;;;;;5063919;28;20206;-74
2023/09/05 07:02:19;;;;;;;3.10;2.30;;;28.10;99.90;;;;;;5084347;28;20271;-74
2023/09/05 07:04:45;;;;;;;5.80;2.50;;;28.40;99.90;;;;;;5080505;28;20203;-72
2023/09/05 07:07:11;;;;;;;3.22;2.00;;;29.10;99.90;;;;;;5068308;28;20182;-74
2023/09/05 07:09:37;;;;;;;4.57;2.08;;;30.60;99.90;;;;;;5083606;28;20190;-74
2023/09/05 07:12:04;;;;;;;5.93;3.28;;;30.90;99.90;;;;;;5082295;28;20271;-73
2023/09/05 07:14:30;;;;;;;7.80;2.90;;;31.00;99.90;;;;;;5084004;28;20217;-74
2023/09/05 07:16:56;;;;;;;3.83;2.13;;;30.60;99.90;;;;;;5081296;28;20217;-74
2023/09/05 07:19:21;;;;;;;3.97;1.95;;;29.60;99.90;;;;;;5071202;28;20604;-74
2023/09/05 07:21:47;;;;;;;3.10;2.03;;;31.80;99.90;;;;;;5084523;28;20208;-74
2023/09/05 07:24:14;;;;;;;1.98;1.83;;;31.60;98.50;;;;;;5085553;28;20276;-75
2023/09/05 07:26:41;;;;;;;5.22;2.30;;;32.40;98.00;;;;;;5081198;28;20201;-75
2023/09/05 07:29:11;;;;;;;3.05;2.28;;;33.00;95.90;;;;;;5082258;28;20210;-76
2023/09/05 07:31:37;;;;;;;3.95;2.60;;;32.20;96.90;;;;;;5065829;28;20218;-77
2023/09/05 07:34:03;;;;;;;3.20;2.40;;;32.30;96.70;;;;;;5084248;28;20165;-77
2023/09/05 07:36:29;;;;;;;2.03;1.70;;;32.70;96.30;;;;;;5064772;28;20604;-76
2023/09/05 07:38:54;;;;;;;2.20;1.98;;;32.50;95.50;;;;;;5071710;28;20216;-77
2023/09/05 07:41:20;;;;;;;5.30;2.30;;;31.20;96.50;;;;;;5082303;28;20210;-77
2023/09/05 07:43:46;;;;;;;2.92;2.10;;;31.90;96.10;;;;;;5062646;28;20209;-75
2023/09/05 07:46:13;;;;;;;4.25;2.42;;;31.90;96.00;;;;;;5081113;28;20220;-75
2023/09/05 07:48:39;;;;;;;7.03;2.80;;;32.70;95.90;;;;;;5085661;28;20665;-76
2023/09/05 07:51:07;;;;;;;4.32;2.00;;;32.50;95.20;;;;;;5078801;28;20256;-76
2023/09/05 07:53:35;;;;;;;2.60;1.77;;;31.50;95.60;;;;;;5063383;28;20222;-76
2023/09/05 07:56:01;;;;;;;2.17;1.83;;;31.80;95.70;;;;;;5079607;28;20752;-74
2023/09/05 07:58:27;;;;;;;5.85;3.65;;;30.00;97.00;;;;;;5062433;28;20218;-74
2023/09/05 08:00:53;;;;;;;5.30;2.03;;;29.70;98.20;;;;;;5063186;28;20194;-73
2023/09/05 08:03:25;;;;;;;3.75;2.00;;;29.20;98.60;;;;;;5071752;28;20412;-72
2023/09/05 08:05:53;;;;;;;2.97;1.83;;;29.30;99.30;;;;;;5082363;28;20254;-73
2023/09/05 08:08:22;;;;;;;3.45;1.75;;;29.90;98.40;;;;;;5080726;28;20198;-73
2023/09/05 08:10:48;;;;;;;2.55;1.77;;;30.70;98.10;;;;;;5057270;28;20687;-73
2023/09/05 08:13:16;;;;;;;3.78;1.98;;;31.40;96.90;;;;;;5056762;28;20286;-74
2023/09/05 08:15:43;;;;;;;4.93;2.03;;;31.00;96.70;;;;;;5066773;28;20187;-73
2023/09/05 08:18:10;;;;;;;2.42;1.92;;;30.60;97.70;;;;;;5083472;28;20351;-73
2023/09/05 08:20:36;;;;;;;3.15;2.28;;;29.20;98.30;;;;;;5079401;28;20215;-73
2023/09/05 08:23:02;;;;;;;3.15;1.75;;;30.00;98.70;;;;;;5080380;28;20233;-73
2023/09/05 08:25:28;;;;;;;3.42;2.00;;;30.90;97.70;;;;;;5084480;28;20222;-74
2023/09/05 08:27:53;;;;;;;2.80;2.10;;;30.70;97.20;;;;;;5083504;28;20212;-74
2023/09/05 08:30:24;;;;;;;5.22;2.00;;;31.10;96.70;;;;;;5082295;28;20206;-70
2023/09/05 08:32:54;;;;;;;2.10;1.90;;;31.10;96.70;;;;;;5083655;28;20206;-73
2023/09/05 08:35:19;;;;;;;5.07;2.75;;;31.20;95.90;;;;;;5062115;28;20233;-73
2023/09/05 08:37:45;;;;;;;3.53;1.80;;;30.90;96.90;;;;;;5086091;28;20275;-74
2023/09/05 08:40:11;;;;;;;3.75;1.98;;;31.50;96.60;;;;;;5063078;28;20573;-74
2023/09/05 08:42:38;;;;;;;4.05;1.63;;;31.00;96.70;;;;;;5084599;28;20598;-74
2023/09/05 08:45:04;;;;;;;4.28;2.33;;;31.70;96.40;;;;;;5081911;28;20199;-73
2023/09/05 08:47:31;;;;;;;4.32;1.90;;;31.30;95.80;;;;;;5085068;28;20638;-72
2023/09/05 08:49:59;;;;;;;4.15;1.90;;;30.80;96.30;;;;;;5080487;28;20241;-73
2023/09/05 08:52:31;;;;;;;2.22;1.67;;;30.50;95.90;;;;;;5080131;28;20714;-73
2023/09/05 08:54:58;;;;;;;3.03;2.65;;;30.00;98.10;;;;;;5085413;28;20257;-74
2023/09/05 08:57:26;;;;;;;7.55;3.17;;;29.80;97.80;;;;;;5082344;28;20651;-73
2023/09/05 08:59:54;;;;;;;2.08;1.80;;;29.20;98.30;;;;;;5087137;28;20252;-71
2023/09/05 09:02:19;;;;;;;3.63;2.22;;;29.40;98.70;;;;;;5078454;28;20210;-74
2023/09/05 09:04:57;;;;;;;2.97;1.90;;;29.90;97.30;;;;;;5069195;28;20212;-73
2023/09/05 09:07:27;;;;;;;2.40;1.48;;;29.80;96.50;;;;;;5083041;28;20206;-73
2023/09/05 09:09:54;;;;;;;2.22;1.80;;;29.70;97.30;;;;;;5065111;28;20571;-71
2023/09/05 09:12:32;;;;;;;2.63;1.70;;;28.80;97.30;;;;;;5080330;28;20202;-73
2023/09/05 09:15:14;;;;;;;3.25;1.80;;;28.50;98.60;;;;;;5078865;28;20722;-72
2023/09/05 09:17:47;;;;;;;3.88;1.52;;;29.40;98.40;;;;;;5083614;28;20209;-74
2023/09/05 09:20:13;;;;;;;2.60;1.63;;;28.50;99.10;;;;;;5077908;28;20628;-74
2023/09/05 09:22:40;;;;;;;4.68;1.60;;;28.30;99.00;;;;;;5081798;28;20218;-75
2023/09/05 09:25:14;;;;;;;3.83;1.80;;;28.40;99.90;;;;;;5079937;28;20190;-74
2023/09/05 09:27:43;;;;;;;3.28;1.52;;;28.30;99.70;;;;;;5075137;28;20230;-75
2023/09/05 09:30:09;;;;;;;3.30;1.52;;;28.10;99.90;;;;;;5079802;28;20218;-76
2023/09/05 09:32:38;;;;;;;4.25;1.40;;;28.20;99.60;;;;;;5060989;28;20234;-76
2023/09/05 09:35:06;;;;;;;1.50;1.40;;;27.90;99.90;;;;;;5061136;28;20210;-73
2023/09/05 09:37:33;;;;;;;1.55;1.45;;;27.80;99.90;;;;;;5075999;28;20777;-70
2023/09/05 09:40:00;;;;;;;3.22;1.60;;;27.70;99.90;;;;;;5078887;28;20282;-75
2023/09/05 09:42:26;;;;;;;1.90;1.33;;;28.20;99.90;;;;;;5079963;28;20211;-74
2023/09/05 09:44:52;;;;;;;1.65;1.55;;;29.10;99.90;;;;;;5079197;28;20238;-75
2023/09/05 09:47:18;;;;;;;2.53;1.63;;;29.30;99.50;;;;;;5067391;28;20232;-75
2023/09/05 09:49:47;;;;;;;3.20;1.50;;;29.20;99.40;;;;;;5077235;28;20716;-75
2023/09/05 09:52:16;;;;;;;1.92;1.52;;;28.50;99.90;;;;;;5060880;28;20723;-73
2023/09/05 09:54:44;;;;;;;1.95;1.40;;;28.50;99.90;;;;;;5077831;28;20184;-75
2023/09/05 09:57:15;;;;;;;2.20;1.67;;;28.80;99.90;;;;;;5084421;28;20318;-74
2023/09/05 09:59:58;;;;;;;1.83;1.50;;;29.40;99.90;;;;;;5071840;28;20214;-74
2023/09/05 10:02:25;;;;;;;3.20;1.75;;;29.40;99.90;;;;;;5085113;28;20215;-73
2023/09/05 10:04:51;;;;;;;2.15;1.50;;;29.80;99.30;;;;;;5084445;28;20704;-74
2023/09/05 10:07:19;;;;;;;1.48;1.30;;;28.80;99.90;;;;;;5069234;28;20244;-73
2023/09/05 10:09:45;;;;;;;1.75;1.20;;;28.10;99.90;;;;;;5070871;28;20294;-75
2023/09/05 10:12:11;;;;;;;2.47;1.35;;;27.90;99.90;;;;;;5078356;28;21046;-74
2023/09/05 10:14:39;;;;;;;1.35;1.13;;;27.50;99.90;;;;;;5071685;28;20209;-74
2023/09/05 10:17:05;;;;;;;3.50;1.52;;;27.40;99.90;;;;;;5084643;28;20206;-75
2023/09/05 10:19:32;;;;;;;3.45;1.65;;;27.20;99.90;;;;;;5070934;28;20339;-75
2023/09/05 10:21:59;;;;;;;2.00;1.50;;;27.30;99.90;;;;;;5063618;28;20277;-74
2023/09/05 10:24:27;;;;;;;3.60;1.55;;;27.40;99.90;;;;;;5069342;28;20168;-74
2023/09/05 10:26:53;;;;;;;2.17;1.73;;;27.60;99.90;;;;;;5082999;28;20256;-74
2023/09/05 10:29:33;;;;;;;2.55;1.60;;;27.40;99.90;;;;;;5084641;28;20660;-74
2023/09/05 10:31:59;;;;;;;5.65;2.03;;;27.20;99.90;;;;;;5085533;28;20592;-75
2023/09/05 10:35:01;;;;;;;2.70;1.50;;;27.40;99.90;;;;;;5086825;28;20260;-75
2023/09/05 10:37:48;;;;;;;2.10;1.65;;;27.60;99.90;;;;;;5083173;28;20209;-75
2023/09/05 10:40:14;;;;;;;1.50;1.33;;;27.70;99.90;;;;;;5068506;28;20213;-75
2023/09/05 10:42:50;;;;;;;1.40;1.30;;;27.70;99.90;;;;;;5068905;28;20201;-75
2023/09/05 10:45:21;;;;;;;3.05;1.50;;;27.80;99.90;;;;;;5087923;28;20205;-75
2023/09/05 10:47:53;;;;;;;5.30;1.52;;;28.10;99.90;;;;;;5086242;28;20701;-75
2023/09/05 10:50:20;;;;;;;1.40;1.30;;;27.60;99.90;;;;;;5067082;28;20297;-75
2023/09/05 10:53:11;;;;;;;2.53;1.60;;;27.60;99.90;;;;;;5079605;28;20203;-74
2023/09/05 10:55:44;;;;;;;2.50;1.48;;;27.40;99.90;;;;;;5064452;28;20213;-75
2023/09/05 10:58:38;;;;;;;1.80;1.15;;;28.10;99.90;;;;;;5083638;28;20183;-75
2023/09/05 11:01:32;;;;;;;1.67;1.27;;;28.30;99.90;;;;;;5078815;28;20691;-74
2023/09/05 11:04:03;;;;;;;1.50;1.30;;;27.80;99.90;;;;;;5054336;28;20600;-74
2023/09/05 11:06:32;;;;;;;2.28;1.30;;;28.30;99.90;;;;;;5084358;28;20171;-76
2023/09/05 11:09:06;;;;;;;1.77;1.42;;;28.40;99.90;;;;;;5080507;28;20290;-75
2023/09/05 11:11:45;;;;;;;6.78;1.50;;;28.00;99.90;;;;;;5083162;28;20206;-75
2023/09/05 11:14:10;;;;;;;1.55;1.20;;;27.70;99.90;;;;;;5063065;28;20222;-75
2023/09/05 11:16:46;;;;;;;2.33;1.27;;;27.70;99.90;;;;;;5083752;28;20202;-75
2023/09/05 11:19:32;;;;;;;1.55;1.10;;;28.00;99.90;;;;;;5082857;28;20198;-75
2023/09/05 11:22:21;;;;;;;1.27;1.17;;;28.30;99.90;;;;;;5066015;28;20218;-74
2023/09/05 11:24:49;;;;;;;2.70;1.48;;;28.90;99.90;;;;;;5068541;28;20175;-76
2023/09/05 11:27:25;;;;;;;1.13;1.02;;;28.60;99.90;;;;;;5083842;28;20296;-74
2023/09/05 11:29:57;;;;;;;2.15;1.45;;;28.20;99.90;;;;;;5083937;28;20229;-74
2023/09/05 11:32:34;;;;;;;1.92;1.42;;;28.10;99.90;;;;;;5061862;28;20324;-75
2023/09/05 11:35:03;;;;;;;2.30;1.40;;;28.40;99.90;;;;;;5075846;28;20221;-73
2023/09/05 11:37:28;;;;;;;2.75;1.55;;;28.30;99.90;;;;;;5066108;28;20724;-76
2023/09/05 11:39:54;;;;;;;4.97;1.20;;;28.50;99.90;;;;;;5082866;28;20260;-73
2023/09/05 11:42:30;;;;;;;2.67;1.63;;;28.60;99.90;;;;;;5086882;28;20214;-73
2023/09/05 11:44:57;;;;;;;3.42;1.40;;;28.40;99.90;;;;;;5083135;28;20306;-72
2023/09/05 11:47:27;;;;;;;3.00;1.40;;;28.20;99.90;;;;;;5081176;28;20203;-74
2023/09/05 11:49:54;;;;;;;2.15;1.70;;;28.50;99.90;;;;;;5060490;28;20264;-75
2023/09/05 11:52:22;;;;;;;4.53;1.60;;;28.70;99.90;;;;;;5082683;28;20213;-74
2023/09/05 11:54:48;;;;;;;2.15;1.20;;;28.40;99.90;;;;;;5082539;28;20678;-74
2023/09/05 11:57:21;;;;;;;2.80;1.58;;;28.00;99.90;;;;;;5077965;28;20300;-75
2023/09/05 11:59:47;;;;;;;3.03;1.33;;;27.90;99.90;;;;;;5068693;28;20210;-73
2023/09/05 12:02:16;;;;;;;1.55;1.33;;;27.90;99.90;;;;;;5084933;28;20214;-74
2023/09/05 12:04:42;;;;;;;1.70;1.05;;;28.30;99.90;;;;;;5078761;28;20199;-74
2023/09/05 12:07:08;;;;;;;2.03;1.40;;;28.30;99.90;;;;;;5064958;28;20183;-72
2023/09/05 12:09:34;;;;;;;1.75;1.02;;;28.30;99.90;;;;;;5082532;28;20239;-73
2023/09/05 12:12:25;;;;;;;1.15;0.93;;;28.30;99.90;;;;;;5081141;28;20592;-74
2023/09/05 12:14:59;;;;;;;4.18;1.42;;;28.40;99.90;;;;;;5077044;28;20814;-74
2023/09/05 12:17:26;;;;;;;2.25;1.40;;;28.10;99.90;;;;;;5079094;28;20218;-74
2023/09/05 12:19:54;;;;;;;1.88;1.42;;;27.70;99.90;;;;;;5078672;28;20219;-72
2023/09/05 12:22:31;;;;;;;1.77;1.20;;;27.80;99.90;;;;;;5084017;28;20210;-73
2023/09/05 12:25:16;;;;;;;2.58;1.13;;;28.00;99.90;;;;;;5081664;28;20584;-73
2023/09/05 12:27:43;;;;;;;2.67;1.40;;;28.30;99.90;;;;;;5079670;28;20254;-73
2023/09/05 12:30:28;;;;;;;2.33;1.13;;;28.70;99.90;;;;;;5079550;28;20220;-75
2023/09/05 12:33:00;;;;;;;1.92;1.13;;;28.60;99.90;;;;;;5078288;28;20329;-73
2023/09/05 12:35:28;;;;;;;1.15;1.05;;;28.50;99.90;;;;;;5079390;28;20222;-74
2023/09/05 12:37:54;;;;;;;4.05;1.25;;;28.70;99.90;;;;;;5079589;28;20615;-72
2023/09/05 12:40:21;;;;;;;1.30;1.20;;;28.50;99.90;;;;;;5081477;28;20591;-73
2023/09/05 12:42:49;;;;;;;1.42;1.08;;;28.40;99.90;;;;;;5065267;28;20202;-73
2023/09/05 12:45:15;;;;;;;1.63;1.10;;;28.20;99.90;;;;;;5077384;28;20213;-74
2023/09/05 12:47:41;;;;;;;1.45;1.00;;;28.10;99.90;;;;;;5077138;28;20203;-73
2023/09/05 12:50:12;;;;;;;2.20;1.52;;;28.30;99.90;;;;;;5080701;28;20207;-74
2023/09/05 12:52:44;;;;;;;1.50;1.00;;;28.10;99.90;;;;;;5086652;28;20206;-73
2023/09/05 12:55:15;;;;;;;2.30;1.30;;;28.30;99.90;;;;;;5081614;28;20183;-73
2023/09/05 12:57:42;;;;;;;2.75;1.40;;;28.30;99.90;;;;;;5068231;28;20266;-74